createdAt,value
2023-05-02T00:01:05.355Z,12.10
2023-05-02T00:03:30.047Z,12.10
2023-05-02T00:05:54.724Z,12.10
2023-05-02T00:08:20.843Z,12.00
2023-05-02T00:10:45.418Z,12.10
2023-05-02T00:13:10.052Z,12.10
2023-05-02T00:15:34.714Z,12.00
2023-05-02T00:17:59.319Z,11.90
2023-05-02T00:20:24.258Z,11.80
2023-05-02T00:22:49.034Z,11.70
2023-05-02T00:25:17.259Z,11.70
2023-05-02T00:27:41.734Z,11.70
2023-05-02T00:30:08.022Z,11.60
2023-05-02T00:32:32.722Z,11.60
2023-05-02T00:34:57.473Z,11.60
2023-05-02T00:37:21.997Z,11.50
2023-05-02T00:39:46.933Z,11.50
2023-05-02T00:42:13.159Z,11.50
2023-05-02T00:44:37.777Z,11.50
2023-05-02T00:47:03.081Z,11.50
2023-05-02T00:49:28.579Z,11.40
2023-05-02T00:51:53.073Z,11.20
2023-05-02T00:54:17.676Z,11.10
2023-05-02T00:56:42.547Z,10.90
2023-05-02T00:59:10.140Z,10.90
2023-05-02T01:01:46.041Z,10.80
2023-05-02T01:04:23.093Z,10.70
2023-05-02T01:07:01.371Z,10.60
2023-05-02T01:09:38.669Z,10.60
2023-05-02T01:12:06.735Z,10.60
2023-05-02T01:14:36.505Z,10.60
2023-05-02T01:17:05.705Z,10.60
2023-05-02T01:19:35.273Z,10.50
2023-05-02T01:22:03.205Z,10.50
2023-05-02T01:24:34.039Z,10.40
2023-05-02T01:27:08.770Z,10.40
2023-05-02T01:29:36.063Z,10.40
2023-05-02T01:32:03.259Z,10.30
2023-05-02T01:34:30.783Z,10.30
2023-05-02T01:36:58.747Z,10.30
2023-05-02T01:39:27.518Z,10.30
2023-05-02T01:41:54.712Z,10.30
2023-05-02T01:44:21.593Z,10.40
2023-05-02T01:46:48.748Z,10.40
2023-05-02T01:49:14.626Z,10.40
2023-05-02T01:51:46.051Z,10.40
2023-05-02T01:54:11.517Z,10.40
2023-05-02T01:56:40.035Z,10.50
2023-05-02T01:59:06.530Z,10.50
2023-05-02T02:01:31.834Z,10.50
2023-05-02T02:03:59.802Z,10.50
2023-05-02T02:06:24.709Z,10.50
2023-05-02T02:08:49.616Z,10.50
2023-05-02T02:11:18.215Z,10.50
2023-05-02T02:13:50.299Z,10.50
2023-05-02T02:16:18.071Z,10.40
2023-05-02T02:18:46.037Z,10.30
2023-05-02T02:21:16.820Z,10.30
2023-05-02T02:23:44.643Z,10.30
2023-05-02T02:26:10.575Z,10.30
2023-05-02T02:28:35.947Z,10.30
2023-05-02T02:31:00.556Z,10.30
2023-05-02T02:33:30.697Z,10.20
2023-05-02T02:36:04.589Z,10.10
2023-05-02T02:38:38.056Z,10.10
2023-05-02T02:41:12.161Z,10.00
2023-05-02T02:43:45.481Z,10.00
2023-05-02T02:46:22.210Z,10.00
2023-05-02T02:48:56.718Z,10.00
2023-05-02T02:51:32.988Z,9.90
2023-05-02T02:54:19.045Z,9.90
2023-05-02T02:56:52.315Z,9.90
2023-05-02T02:59:21.753Z,9.90
2023-05-02T03:01:54.540Z,9.90
2023-05-02T03:04:23.065Z,9.90
2023-05-02T03:06:47.764Z,9.90
2023-05-02T03:09:22.294Z,9.80
2023-05-02T03:11:48.390Z,9.80
2023-05-02T03:14:13.713Z,9.80
2023-05-02T03:16:40.307Z,9.90
2023-05-02T03:19:09.513Z,9.90
2023-05-02T03:21:35.561Z,10.00
2023-05-02T03:24:08.120Z,10.20
2023-05-02T03:26:34.310Z,10.50
2023-05-02T03:28:59.910Z,10.90
2023-05-02T03:31:30.574Z,11.20
2023-05-02T03:33:55.240Z,11.40
2023-05-02T03:36:20.429Z,11.50
2023-05-02T03:38:45.053Z,11.70
2023-05-02T03:41:11.376Z,11.80
2023-05-02T03:43:37.865Z,11.90
2023-05-02T03:46:07.918Z,12.10
2023-05-02T03:48:35.673Z,12.10
2023-05-02T03:51:00.809Z,12.30
2023-05-02T03:53:25.530Z,12.30
2023-05-02T03:55:54.725Z,12.50
2023-05-02T03:58:28.664Z,12.70
2023-05-02T04:00:56.778Z,13.00
2023-05-02T04:03:23.167Z,13.30
2023-05-02T04:05:48.853Z,14.00
2023-05-02T04:08:15.091Z,14.20
2023-05-02T04:10:41.098Z,14.60
2023-05-02T04:13:08.437Z,14.80
2023-05-02T04:15:37.277Z,15.10
2023-05-02T04:18:04.748Z,15.40
2023-05-02T04:20:30.519Z,15.40
2023-05-02T04:22:57.166Z,15.30
2023-05-02T04:25:22.064Z,15.40
2023-05-02T04:27:48.900Z,15.20
2023-05-02T04:30:17.812Z,15.20
2023-05-02T04:32:52.067Z,15.30
2023-05-02T04:35:19.192Z,15.50
2023-05-02T04:37:44.557Z,15.40
2023-05-02T04:40:10.694Z,15.30
2023-05-02T04:42:36.569Z,14.80
2023-05-02T04:45:27.329Z,14.80
2023-05-02T04:47:52.649Z,14.60
2023-05-02T04:50:22.027Z,14.80
2023-05-02T04:52:47.426Z,14.80
2023-05-02T04:55:13.077Z,14.70
2023-05-02T04:57:40.683Z,14.60
2023-05-02T05:00:09.948Z,14.60
2023-05-02T05:02:35.291Z,14.70
2023-05-02T05:05:03.193Z,14.90
2023-05-02T05:07:30.761Z,15.00
2023-05-02T05:09:56.086Z,15.00
2023-05-02T05:12:29.037Z,15.10
2023-05-02T05:14:53.990Z,15.40
2023-05-02T05:17:21.994Z,15.50
2023-05-02T05:19:47.201Z,15.60
2023-05-02T05:22:11.804Z,15.90
2023-05-02T05:24:39.305Z,15.80
2023-05-02T05:27:05.296Z,15.60
2023-05-02T05:29:32.668Z,15.60
2023-05-02T05:31:57.837Z,16.00
2023-05-02T05:34:25.241Z,16.10
2023-05-02T05:36:52.465Z,16.20
2023-05-02T05:39:18.615Z,16.10
2023-05-02T05:41:48.598Z,16.20
2023-05-02T05:44:13.675Z,16.10
2023-05-02T05:46:38.685Z,16.20
2023-05-02T05:49:05.330Z,16.50
2023-05-02T05:51:31.561Z,16.30
2023-05-02T05:53:57.675Z,16.30
2023-05-02T05:56:23.023Z,16.30
2023-05-02T05:59:12.775Z,16.20
2023-05-02T06:01:38.195Z,16.60
2023-05-02T06:04:05.117Z,17.30
2023-05-02T06:06:31.818Z,17.50
2023-05-02T06:08:56.860Z,18.00
2023-05-02T06:11:24.508Z,18.30
2023-05-02T06:13:49.134Z,18.30
2023-05-02T06:16:15.424Z,18.20
2023-05-02T06:18:39.999Z,18.30
2023-05-02T06:21:06.246Z,18.20
2023-05-02T06:23:30.811Z,17.80
2023-05-02T06:25:55.796Z,17.70
2023-05-02T06:28:20.935Z,17.90
2023-05-02T06:30:45.648Z,17.90
2023-05-02T06:33:12.603Z,17.70
2023-05-02T06:35:42.097Z,18.10
2023-05-02T06:38:06.949Z,18.10
2023-05-02T06:40:31.366Z,18.30
2023-05-02T06:42:56.910Z,18.30
2023-05-02T06:45:21.856Z,18.30
2023-05-02T06:47:46.557Z,18.20
2023-05-02T06:50:13.091Z,18.20
2023-05-02T06:52:37.647Z,18.20
2023-05-02T06:55:03.393Z,18.00
2023-05-02T06:57:29.066Z,18.00
2023-05-02T06:59:53.837Z,18.30
2023-05-02T07:02:18.795Z,18.40
2023-05-02T07:04:43.670Z,18.50
2023-05-02T07:07:09.856Z,18.60
2023-05-02T07:09:34.532Z,18.50
2023-05-02T07:11:59.240Z,18.40
2023-05-02T07:14:24.016Z,18.60
2023-05-02T07:16:48.743Z,19.00
2023-05-02T07:19:13.520Z,19.20
2023-05-02T07:21:38.087Z,19.40
2023-05-02T07:24:04.143Z,19.40
2023-05-02T07:26:30.069Z,19.80
2023-05-02T07:28:54.731Z,19.70
2023-05-02T07:31:19.360Z,19.80
2023-05-02T07:33:44.000Z,20.10
2023-05-02T07:36:09.089Z,20.20
2023-05-02T07:38:33.728Z,20.60
2023-05-02T07:41:03.348Z,20.80
2023-05-02T07:43:29.411Z,20.70
2023-05-02T07:45:54.425Z,20.60
2023-05-02T07:48:22.316Z,20.60
2023-05-02T07:50:46.851Z,20.60
2023-05-02T07:53:11.665Z,20.60
2023-05-02T07:55:36.580Z,20.90
2023-05-02T07:58:02.982Z,21.00
2023-05-02T08:00:27.726Z,21.20
2023-05-02T08:02:52.520Z,21.00
2023-05-02T08:05:17.387Z,21.00
2023-05-02T08:07:41.979Z,20.80
2023-05-02T08:10:08.786Z,20.90
2023-05-02T08:12:33.438Z,21.20
2023-05-02T08:14:59.490Z,21.30
2023-05-02T08:17:24.217Z,21.40
2023-05-02T08:19:48.806Z,21.80
2023-05-02T08:22:13.519Z,22.20
2023-05-02T08:24:39.612Z,22.00
2023-05-02T08:27:04.759Z,22.00
2023-05-02T08:29:29.397Z,22.00
2023-05-02T08:31:55.371Z,22.00
2023-05-02T08:34:20.061Z,22.20
2023-05-02T08:36:44.733Z,22.30
2023-05-02T08:39:09.581Z,22.20
2023-05-02T08:41:34.242Z,22.60
2023-05-02T08:43:59.173Z,22.80
2023-05-02T08:46:27.166Z,23.00
2023-05-02T08:48:53.713Z,23.10
2023-05-02T08:53:50.431Z,23.00
2023-05-02T08:56:15.189Z,22.90
2023-05-02T08:58:41.428Z,22.90
2023-05-02T09:01:11.452Z,22.80
2023-05-02T09:03:37.803Z,23.20
2023-05-02T09:06:08.252Z,22.70
2023-05-02T09:08:32.857Z,22.40
2023-05-02T09:10:57.412Z,22.70
2023-05-02T09:13:35.482Z,23.10
2023-05-02T09:16:00.917Z,22.70
2023-05-02T09:18:25.788Z,22.60
2023-05-02T09:20:50.302Z,22.40
2023-05-02T09:23:16.196Z,22.50
2023-05-02T09:25:41.640Z,22.50
2023-05-02T09:28:06.358Z,22.50
2023-05-02T09:30:31.273Z,22.70
2023-05-02T09:32:56.372Z,22.40
2023-05-02T09:35:24.830Z,22.50
2023-05-02T09:37:51.019Z,22.80
2023-05-02T09:40:17.630Z,22.20
2023-05-02T09:42:42.171Z,21.80
2023-05-02T09:45:08.008Z,22.10
2023-05-02T09:47:32.652Z,22.50
2023-05-02T09:49:57.271Z,22.80
2023-05-02T09:52:22.786Z,22.80
2023-05-02T09:54:48.121Z,22.80
2023-05-02T09:57:15.943Z,22.70
2023-05-02T09:59:41.521Z,22.10
2023-05-02T10:02:10.492Z,22.20
2023-05-02T10:04:35.759Z,22.30
2023-05-02T10:07:01.935Z,22.70
2023-05-02T10:09:28.148Z,22.70
2023-05-02T10:11:54.841Z,22.70
2023-05-02T10:14:22.821Z,22.90
2023-05-02T10:16:55.153Z,23.10
2023-05-02T10:19:29.109Z,22.70
2023-05-02T10:21:55.037Z,22.50
2023-05-02T10:24:21.116Z,22.30
2023-05-02T10:26:46.283Z,22.10
2023-05-02T10:29:11.493Z,21.90
2023-05-02T10:31:39.917Z,21.90
2023-05-02T10:34:06.292Z,22.20
2023-05-02T10:36:33.688Z,22.30
2023-05-02T10:38:58.469Z,22.30
2023-05-02T10:41:28.056Z,22.30
2023-05-02T10:43:52.898Z,22.10
2023-05-02T10:46:37.493Z,21.90
2023-05-02T10:49:06.218Z,21.80
2023-05-02T10:51:31.504Z,21.70
2023-05-02T10:53:57.689Z,21.60
2023-05-02T10:56:26.970Z,21.70
2023-05-02T10:58:54.092Z,21.80
2023-05-02T11:01:39.707Z,21.60
2023-05-02T11:04:07.516Z,21.80
2023-05-02T11:06:34.309Z,22.00
2023-05-02T11:09:33.326Z,21.90
2023-05-02T11:11:58.182Z,21.90
2023-05-02T11:14:44.387Z,21.90
2023-05-02T11:17:12.437Z,22.10
2023-05-02T11:20:25.827Z,22.20
2023-05-02T11:22:52.262Z,22.10
2023-05-02T11:25:47.660Z,22.20
2023-05-02T11:28:43.545Z,22.60
2023-05-02T11:31:10.271Z,22.50
2023-05-02T11:33:34.973Z,22.70
2023-05-02T11:36:21.896Z,22.60
2023-05-02T11:38:51.681Z,22.50
2023-05-02T11:41:21.938Z,22.60
2023-05-02T11:43:49.084Z,22.50
2023-05-02T11:46:17.547Z,22.50
2023-05-02T11:48:43.348Z,22.50
2023-05-02T11:51:08.089Z,22.50
2023-05-02T11:53:33.397Z,22.10
2023-05-02T11:56:01.348Z,22.10
2023-05-02T11:58:29.761Z,22.20
2023-05-02T12:00:55.216Z,22.30
2023-05-02T12:03:32.005Z,22.50
2023-05-02T12:05:57.900Z,22.70
2023-05-02T12:08:24.637Z,22.70
2023-05-02T12:10:49.432Z,22.50
2023-05-02T12:13:15.705Z,22.40
2023-05-02T12:15:43.133Z,22.40
2023-05-02T12:18:08.819Z,22.40
2023-05-02T12:20:33.638Z,22.60
2023-05-02T12:22:58.791Z,22.50
2023-05-02T12:25:23.585Z,22.60
2023-05-02T12:28:01.362Z,22.40
2023-05-02T12:30:33.267Z,22.40
2023-05-02T12:33:00.724Z,22.60
2023-05-02T12:35:25.704Z,22.40
2023-05-02T12:37:50.926Z,22.40
2023-05-02T12:40:17.929Z,22.50
2023-05-02T12:42:42.784Z,22.50
2023-05-02T12:45:19.838Z,22.50
2023-05-02T12:47:48.013Z,22.50
2023-05-02T12:50:12.930Z,22.50
2023-05-02T12:52:51.339Z,22.60
2023-05-02T12:55:19.858Z,22.50
2023-05-02T12:57:45.660Z,22.60
2023-05-02T13:00:11.906Z,22.70
2023-05-02T13:02:38.921Z,22.80
2023-05-02T13:05:14.768Z,22.80
2023-05-02T13:07:39.412Z,22.60
2023-05-02T13:10:04.241Z,22.60
2023-05-02T13:12:29.609Z,22.50
2023-05-02T13:14:54.169Z,22.40
2023-05-02T13:17:18.896Z,22.30
2023-05-02T13:19:50.503Z,22.40
2023-05-02T13:22:28.079Z,22.30
2023-05-02T13:24:52.810Z,22.30
2023-05-02T13:27:18.602Z,22.30
2023-05-02T13:29:43.468Z,22.20
2023-05-02T13:32:08.118Z,22.20
2023-05-02T13:34:32.845Z,22.30
2023-05-02T13:36:57.624Z,22.20
2023-05-02T13:39:24.177Z,22.10
2023-05-02T13:41:48.648Z,22.10
2023-05-02T13:44:15.643Z,22.10
2023-05-02T13:46:40.385Z,22.10
2023-05-02T13:49:05.267Z,22.20
2023-05-02T13:51:31.456Z,22.20
2023-05-02T13:53:56.623Z,22.10
2023-05-02T13:56:22.565Z,22.00
2023-05-02T13:58:47.236Z,22.00
2023-05-02T14:01:11.891Z,22.10
2023-05-02T14:03:37.209Z,22.30
2023-05-02T14:06:01.929Z,22.30
2023-05-02T14:08:26.656Z,22.10
2023-05-02T14:10:56.719Z,22.10
2023-05-02T14:13:24.738Z,22.20
2023-05-02T14:15:49.345Z,22.20
2023-05-02T14:18:14.497Z,22.20
2023-05-02T14:20:39.290Z,22.10
2023-05-02T14:23:05.457Z,22.00
2023-05-02T14:25:35.321Z,22.00
2023-05-02T14:28:00.624Z,22.10
2023-05-02T14:30:26.652Z,22.20
2023-05-02T14:32:52.284Z,22.10
2023-05-02T14:35:17.203Z,22.10
2023-05-02T14:37:45.113Z,22.00
2023-05-02T14:40:10.933Z,21.90
2023-05-02T14:42:36.002Z,21.90
2023-05-02T14:45:02.448Z,22.00
2023-05-02T14:47:34.732Z,22.00
2023-05-02T14:50:00.093Z,22.00
2023-05-02T14:52:24.976Z,21.90
2023-05-02T14:54:50.064Z,21.80
2023-05-02T14:57:15.617Z,21.90
2023-05-02T14:59:40.598Z,22.00
2023-05-02T15:02:08.398Z,22.00
2023-05-02T15:04:37.151Z,22.00
2023-05-02T15:07:02.169Z,21.90
2023-05-02T15:09:31.988Z,21.90
2023-05-02T15:11:56.936Z,22.00
2023-05-02T15:14:22.072Z,22.00
2023-05-02T15:16:47.105Z,22.00
2023-05-02T15:19:12.092Z,22.00
2023-05-02T15:21:38.494Z,22.00
2023-05-02T15:24:03.968Z,21.90
2023-05-02T15:26:29.196Z,21.90
2023-05-02T15:28:54.510Z,22.00
2023-05-02T15:31:19.397Z,22.00
2023-05-02T15:33:46.403Z,22.00
2023-05-02T15:36:11.561Z,21.90
2023-05-02T15:38:39.767Z,21.80
2023-05-02T15:41:04.376Z,21.80
2023-05-02T15:43:28.944Z,21.70
2023-05-02T15:45:54.143Z,21.70
2023-05-02T15:48:18.689Z,21.80
2023-05-02T15:50:44.209Z,21.80
2023-05-02T15:53:09.822Z,21.80
2023-05-02T15:55:36.600Z,21.80
2023-05-02T15:58:01.515Z,21.80
2023-05-02T16:00:26.825Z,21.70
2023-05-02T16:02:51.594Z,21.70
2023-05-02T16:05:16.560Z,21.60
2023-05-02T16:07:41.081Z,21.50
2023-05-02T16:10:06.467Z,21.50
2023-05-02T16:12:32.539Z,21.40
2023-05-02T16:14:57.108Z,21.40
2023-05-02T16:17:21.849Z,21.40
2023-05-02T16:19:46.563Z,21.20
2023-05-02T16:22:11.478Z,21.00
2023-05-02T16:24:36.188Z,20.80
2023-05-02T16:27:02.009Z,20.70
2023-05-02T16:29:28.249Z,20.50
2023-05-02T16:31:53.263Z,20.50
2023-05-02T16:34:23.362Z,20.40
2023-05-02T16:36:49.746Z,20.30
2023-05-02T16:39:15.063Z,20.10
2023-05-02T16:41:39.804Z,20.00
2023-05-02T16:44:04.578Z,19.90
2023-05-02T16:46:30.871Z,19.80
2023-05-02T16:48:55.869Z,19.80
2023-05-02T16:51:24.001Z,19.80
2023-05-02T16:53:48.861Z,19.70
2023-05-02T16:56:13.471Z,19.60
2023-05-02T16:58:42.313Z,19.50
2023-05-02T17:01:07.586Z,19.40
2023-05-02T17:03:34.276Z,19.30
2023-05-02T17:06:02.325Z,19.10
2023-05-02T17:08:27.351Z,19.10
2023-05-02T17:10:52.704Z,19.00
2023-05-02T17:13:17.540Z,19.00
2023-05-02T17:15:42.302Z,18.90
2023-05-02T17:18:07.323Z,18.80
2023-05-02T17:20:34.222Z,18.60
2023-05-02T17:23:00.458Z,18.60
2023-05-02T17:25:25.132Z,18.50
2023-05-02T17:27:49.889Z,18.40
2023-05-02T17:30:15.762Z,18.30
2023-05-02T17:32:42.540Z,18.20
2023-05-02T17:35:08.258Z,18.10
2023-05-02T17:37:34.516Z,18.10
2023-05-02T17:40:01.263Z,18.00
2023-05-02T17:42:32.014Z,17.90
2023-05-02T17:44:56.992Z,17.80
2023-05-02T17:47:23.873Z,17.80
2023-05-02T17:49:51.413Z,17.80
2023-05-02T17:52:15.935Z,17.70
2023-05-02T17:54:45.200Z,17.60
2023-05-02T17:57:52.420Z,17.50
2023-05-02T18:00:18.901Z,17.50
2023-05-02T18:02:44.127Z,17.40
2023-05-02T18:05:09.665Z,17.30
2023-05-02T18:07:45.623Z,17.30
2023-05-02T18:10:14.869Z,17.20
2023-05-02T18:12:44.760Z,17.10
2023-05-02T18:15:16.890Z,17.00
2023-05-02T18:17:53.664Z,16.90
2023-05-02T18:20:18.987Z,16.90
2023-05-02T18:22:43.614Z,16.70
2023-05-02T18:25:09.203Z,16.70
2023-05-02T18:27:48.750Z,16.70
2023-05-02T18:30:16.404Z,16.50
2023-05-02T18:32:58.406Z,16.40
2023-05-02T18:35:23.549Z,16.40
2023-05-02T18:37:48.603Z,16.30
2023-05-02T18:40:13.896Z,16.20
2023-05-02T18:42:40.485Z,16.10
2023-05-02T18:45:10.506Z,16.00
2023-05-02T18:47:39.126Z,15.90
2023-05-02T18:50:05.597Z,15.80
2023-05-02T18:52:34.178Z,15.70
2023-05-02T18:55:02.482Z,15.80
2023-05-02T18:57:30.462Z,15.70
2023-05-02T19:00:00.263Z,15.70
2023-05-02T19:02:26.497Z,15.50
2023-05-02T19:04:57.437Z,15.50
2023-05-02T19:07:24.808Z,15.40
2023-05-02T19:09:50.405Z,15.30
2023-05-02T19:12:15.196Z,15.30
2023-05-02T19:14:41.215Z,15.20
2023-05-02T19:17:07.478Z,15.10
2023-05-02T19:19:37.556Z,15.10
2023-05-02T19:22:02.859Z,15.00
2023-05-02T19:24:28.712Z,14.80
2023-05-02T19:26:55.526Z,14.80
2023-05-02T19:29:32.288Z,14.70
2023-05-02T19:32:10.113Z,14.70
2023-05-02T19:34:38.078Z,14.70
2023-05-02T19:37:04.222Z,14.60
2023-05-02T19:39:31.457Z,14.50
2023-05-02T19:41:56.256Z,14.50
2023-05-02T19:44:21.732Z,14.50
2023-05-02T19:46:48.496Z,14.40
2023-05-02T19:49:14.554Z,14.30
2023-05-02T19:51:39.387Z,14.30
2023-05-02T19:54:04.174Z,14.20
2023-05-02T19:56:29.013Z,14.20
2023-05-02T19:58:57.197Z,14.10
2023-05-02T20:01:27.282Z,14.10
2023-05-02T20:03:55.273Z,14.10
2023-05-02T20:06:24.934Z,14.10
2023-05-02T20:08:52.129Z,14.10
2023-05-02T20:11:26.371Z,14.10
2023-05-02T20:13:51.661Z,14.10
2023-05-02T20:16:18.977Z,14.00
2023-05-02T20:18:43.616Z,13.90
2023-05-02T20:21:08.202Z,13.80
2023-05-02T20:23:34.220Z,13.80
2023-05-02T20:26:00.887Z,13.70
2023-05-02T20:28:25.986Z,13.70
2023-05-02T20:30:50.644Z,13.60
2023-05-02T20:33:16.748Z,13.60
2023-05-02T20:35:42.554Z,13.50
2023-05-02T20:38:11.102Z,13.50
2023-05-02T20:40:55.383Z,13.30
2023-05-02T20:43:20.077Z,13.20
2023-05-02T20:45:45.439Z,13.20
2023-05-02T20:48:10.497Z,13.20
2023-05-02T20:50:35.411Z,13.20
2023-05-02T20:53:00.634Z,13.20
2023-05-02T20:55:25.966Z,13.00
2023-05-02T20:57:55.386Z,12.90
2023-05-02T21:00:22.539Z,12.90
2023-05-02T21:02:51.988Z,12.90
2023-05-02T21:05:17.611Z,12.80
2023-05-02T21:07:42.234Z,12.80
2023-05-02T21:10:08.529Z,12.70
2023-05-02T21:12:33.228Z,12.60
2023-05-02T21:15:01.814Z,12.60
2023-05-02T21:17:29.394Z,12.60
2023-05-02T21:19:55.973Z,12.60
2023-05-02T21:22:24.907Z,12.60
2023-05-02T21:24:50.685Z,12.60
2023-05-02T21:27:16.183Z,12.60
2023-05-02T21:29:41.022Z,12.60
2023-05-02T21:32:10.414Z,12.50
2023-05-02T21:34:35.530Z,12.30
2023-05-02T21:37:00.163Z,12.40
2023-05-02T21:39:26.462Z,12.30
2023-05-02T21:41:52.505Z,12.20
2023-05-02T21:44:17.004Z,12.20
2023-05-02T21:46:42.390Z,12.20
2023-05-02T21:49:08.830Z,12.10
2023-05-02T21:51:34.475Z,12.20
2023-05-02T21:53:59.148Z,12.10
2023-05-02T21:56:23.920Z,12.10
2023-05-02T21:58:51.221Z,12.10
2023-05-02T22:01:16.217Z,12.00
2023-05-02T22:03:41.173Z,11.90
2023-05-02T22:06:07.967Z,11.80
2023-05-02T22:08:32.719Z,11.80
2023-05-02T22:10:58.903Z,11.80
2023-05-02T22:13:24.200Z,11.70
2023-05-02T22:15:50.962Z,11.70
2023-05-02T22:18:16.890Z,11.60
2023-05-02T22:20:42.141Z,11.60
2023-05-02T22:23:08.461Z,11.60
2023-05-02T22:25:35.930Z,11.50
2023-05-02T22:28:09.350Z,11.50
2023-05-02T22:30:34.098Z,11.50
2023-05-02T22:32:58.904Z,11.50
2023-05-02T22:35:23.859Z,11.40
2023-05-02T22:37:48.618Z,11.40
2023-05-02T22:40:15.302Z,11.40
2023-05-02T22:42:40.338Z,11.40
2023-05-02T22:45:07.719Z,11.30
2023-05-02T22:47:32.588Z,11.30
2023-05-02T22:49:59.743Z,11.20
2023-05-02T22:52:27.552Z,11.20
2023-05-02T22:54:52.164Z,11.20
2023-05-02T22:57:18.260Z,11.20
2023-05-02T22:59:42.948Z,11.30
2023-05-02T23:02:10.902Z,11.30
2023-05-02T23:04:35.548Z,11.40
2023-05-02T23:07:01.426Z,11.40
2023-05-02T23:13:23.893Z,11.40
2023-05-02T23:15:53.310Z,11.50
2023-05-02T23:18:18.041Z,11.40
2023-05-02T23:20:42.613Z,11.40
2023-05-02T23:23:07.195Z,11.20
2023-05-02T23:25:32.296Z,10.90
2023-05-02T23:27:56.967Z,10.70
2023-05-02T23:30:24.466Z,10.50
2023-05-02T23:32:49.353Z,10.30
2023-05-02T23:35:14.260Z,10.20
2023-05-02T23:37:39.811Z,10.10
2023-05-02T23:40:04.907Z,10.00
2023-05-02T23:42:33.280Z,9.90
2023-05-02T23:44:58.174Z,9.90
2023-05-02T23:47:27.252Z,9.80
2023-05-02T23:49:51.906Z,9.70
2023-05-02T23:52:16.606Z,9.70
2023-05-02T23:54:41.364Z,9.70
2023-05-02T23:57:09.340Z,9.70
2023-05-02T23:59:34.256Z,9.70
